Fort Macon Coast Guard Base, North Carolina
Current Conditions -  °F | °C
As of 10:24 AM on Monday 22 Dec 2014 (Local Time) from KMRH Reporting Station
Light Rain Light Rain  
Wind Chill: 51°   Ceiling: 200
Heat Index: 51°   Visibility: 5mi
Dew Point: 51°   Wind: 15mph
Humidity: 100%   Direction: 340°NNW
Pressure: 30.06"   Gusts: NA
Location:  34.6984°N, 76.7775°W
Report Text: KMRH 221524Z AUTO 34013KT 5SM -RA BR OVC002 11/11 A3006 RMK AO2 RAB13 P0000 I1000 T01060106 TSNO
Loading
Personal Weather Stations






























Interactive Weather Map New forecast layout! Learn more

10-Day Weather Forecast

Advertisements
Track Severe Weather on mobile